sensor_id;sensor_type;location;lat;lon;timestamp;P1;durP1;ratioP1;P2;durP2;ratioP2
41466;SDS011;27205;53.690;19.948;2023-05-18T00:00:44;3.70;;;2.90;;
41466;SDS011;27205;53.690;19.948;2023-05-18T00:05:54;4.30;;;2.50;;
41466;SDS011;27205;53.690;19.948;2023-05-18T00:10:58;2.90;;;1.90;;
41466;SDS011;27205;53.690;19.948;2023-05-18T00:16:02;4.30;;;2.60;;
41466;SDS011;27205;53.690;19.948;2023-05-18T00:21:05;3.60;;;2.20;;
41466;SDS011;27205;53.690;19.948;2023-05-18T00:26:09;4.10;;;2.50;;
41466;SDS011;27205;53.690;19.948;2023-05-18T00:31:12;4.10;;;2.60;;
41466;SDS011;27205;53.690;19.948;2023-05-18T00:36:14;3.30;;;2.50;;
41466;SDS011;27205;53.690;19.948;2023-05-18T00:41:16;4.00;;;2.70;;
41466;SDS011;27205;53.690;19.948;2023-05-18T00:46:19;3.80;;;2.80;;
41466;SDS011;27205;53.690;19.948;2023-05-18T00:51:22;2.20;;;1.70;;
41466;SDS011;27205;53.690;19.948;2023-05-18T00:56:25;3.50;;;2.50;;
41466;SDS011;27205;53.690;19.948;2023-05-18T01:01:29;4.80;;;3.00;;
41466;SDS011;27205;53.690;19.948;2023-05-18T01:06:35;3.30;;;2.20;;
41466;SDS011;27205;53.690;19.948;2023-05-18T01:27:50;4.70;;;2.80;;
41466;SDS011;27205;53.690;19.948;2023-05-18T01:32:56;4.30;;;3.10;;
41466;SDS011;27205;53.690;19.948;2023-05-18T01:37:59;4.10;;;2.80;;
41466;SDS011;27205;53.690;19.948;2023-05-18T01:43:09;4.70;;;2.70;;
41466;SDS011;27205;53.690;19.948;2023-05-18T01:48:17;4.50;;;3.20;;
41466;SDS011;27205;53.690;19.948;2023-05-18T01:58:56;2.30;;;2.10;;
41466;SDS011;27205;53.690;19.948;2023-05-18T02:04:00;3.50;;;2.40;;
41466;SDS011;27205;53.690;19.948;2023-05-18T02:09:03;3.30;;;2.40;;
41466;SDS011;27205;53.690;19.948;2023-05-18T02:14:06;5.20;;;2.70;;
41466;SDS011;27205;53.690;19.948;2023-05-18T02:19:08;3.30;;;2.20;;
41466;SDS011;27205;53.690;19.948;2023-05-18T02:24:10;5.00;;;3.40;;
41466;SDS011;27205;53.690;19.948;2023-05-18T02:29:13;5.80;;;2.90;;
41466;SDS011;27205;53.690;19.948;2023-05-18T02:34:15;6.50;;;3.10;;
41466;SDS011;27205;53.690;19.948;2023-05-18T02:39:18;5.30;;;2.80;;
41466;SDS011;27205;53.690;19.948;2023-05-18T02:44:21;6.00;;;2.60;;
41466;SDS011;27205;53.690;19.948;2023-05-18T02:49:23;5.60;;;2.60;;
41466;SDS011;27205;53.690;19.948;2023-05-18T02:54:25;4.40;;;2.40;;
41466;SDS011;27205;53.690;19.948;2023-05-18T02:59:27;2.30;;;1.90;;
41466;SDS011;27205;53.690;19.948;2023-05-18T03:04:30;4.30;;;2.90;;
41466;SDS011;27205;53.690;19.948;2023-05-18T03:09:32;3.30;;;2.30;;
41466;SDS011;27205;53.690;19.948;2023-05-18T03:14:34;2.70;;;2.20;;
41466;SDS011;27205;53.690;19.948;2023-05-18T03:19:37;2.30;;;1.80;;
41466;SDS011;27205;53.690;19.948;2023-05-18T03:24:39;4.10;;;2.50;;
41466;SDS011;27205;53.690;19.948;2023-05-18T03:29:41;4.00;;;2.30;;
41466;SDS011;27205;53.690;19.948;2023-05-18T03:34:44;2.80;;;2.40;;
41466;SDS011;27205;53.690;19.948;2023-05-18T03:44:50;4.10;;;1.80;;
41466;SDS011;27205;53.690;19.948;2023-05-18T03:49:52;5.00;;;2.70;;
41466;SDS011;27205;53.690;19.948;2023-05-18T03:54:55;2.50;;;2.00;;
41466;SDS011;27205;53.690;19.948;2023-05-18T03:59:57;3.10;;;1.80;;
41466;SDS011;27205;53.690;19.948;2023-05-18T04:05:00;3.50;;;2.20;;
41466;SDS011;27205;53.690;19.948;2023-05-18T04:10:02;3.90;;;2.20;;
41466;SDS011;27205;53.690;19.948;2023-05-18T04:15:05;2.60;;;1.90;;
41466;SDS011;27205;53.690;19.948;2023-05-18T04:20:08;3.60;;;1.70;;
41466;SDS011;27205;53.690;19.948;2023-05-18T04:25:14;3.20;;;2.00;;
41466;SDS011;27205;53.690;19.948;2023-05-18T04:30:17;3.10;;;1.90;;
41466;SDS011;27205;53.690;19.948;2023-05-18T04:35:22;2.50;;;1.80;;
41466;SDS011;27205;53.690;19.948;2023-05-18T04:40:27;2.10;;;1.80;;
41466;SDS011;27205;53.690;19.948;2023-05-18T04:45:29;2.30;;;1.40;;
41466;SDS011;27205;53.690;19.948;2023-05-18T04:50:32;2.70;;;1.90;;
41466;SDS011;27205;53.690;19.948;2023-05-18T04:55:36;2.10;;;1.20;;
41466;SDS011;27205;53.690;19.948;2023-05-18T05:00:38;2.40;;;1.30;;
41466;SDS011;27205;53.690;19.948;2023-05-18T05:05:41;1.90;;;1.30;;
41466;SDS011;27205;53.690;19.948;2023-05-18T05:10:43;2.20;;;1.00;;
41466;SDS011;27205;53.690;19.948;2023-05-18T05:15:45;1.70;;;1.10;;
41466;SDS011;27205;53.690;19.948;2023-05-18T05:20:48;1.60;;;1.30;;
41466;SDS011;27205;53.690;19.948;2023-05-18T05:25:51;2.20;;;1.50;;
41466;SDS011;27205;53.690;19.948;2023-05-18T05:30:53;2.80;;;1.00;;
41466;SDS011;27205;53.690;19.948;2023-05-18T05:35:55;2.40;;;1.20;;
41466;SDS011;27205;53.690;19.948;2023-05-18T05:40:57;7.80;;;2.40;;
41466;SDS011;27205;53.690;19.948;2023-05-18T05:46:00;1.80;;;1.00;;
41466;SDS011;27205;53.690;19.948;2023-05-18T05:51:02;1.30;;;0.90;;
41466;SDS011;27205;53.690;19.948;2023-05-18T05:56:05;0.70;;;0.70;;
41466;SDS011;27205;53.690;19.948;2023-05-18T06:01:08;1.10;;;0.80;;
41466;SDS011;27205;53.690;19.948;2023-05-18T06:06:11;0.70;;;0.70;;
41466;SDS011;27205;53.690;19.948;2023-05-18T06:11:14;0.50;;;0.50;;
41466;SDS011;27205;53.690;19.948;2023-05-18T06:16:16;1.70;;;1.00;;
41466;SDS011;27205;53.690;19.948;2023-05-18T06:21:18;0.60;;;0.60;;
41466;SDS011;27205;53.690;19.948;2023-05-18T06:26:21;1.70;;;0.80;;
41466;SDS011;27205;53.690;19.948;2023-05-18T06:31:23;1.40;;;0.80;;
41466;SDS011;27205;53.690;19.948;2023-05-18T06:36:26;1.50;;;0.70;;
41466;SDS011;27205;53.690;19.948;2023-05-18T06:41:28;0.60;;;0.60;;
41466;SDS011;27205;53.690;19.948;2023-05-18T06:46:31;3.00;;;1.50;;
41466;SDS011;27205;53.690;19.948;2023-05-18T06:51:33;1.00;;;0.80;;
41466;SDS011;27205;53.690;19.948;2023-05-18T06:56:35;2.40;;;0.60;;
41466;SDS011;27205;53.690;19.948;2023-05-18T07:01:38;1.00;;;0.70;;
41466;SDS011;27205;53.690;19.948;2023-05-18T07:06:40;1.40;;;0.90;;
41466;SDS011;27205;53.690;19.948;2023-05-18T07:11:42;1.10;;;0.60;;
41466;SDS011;27205;53.690;19.948;2023-05-18T07:16:46;0.60;;;0.60;;
41466;SDS011;27205;53.690;19.948;2023-05-18T07:21:48;0.70;;;0.60;;
41466;SDS011;27205;53.690;19.948;2023-05-18T07:26:51;0.80;;;0.70;;
41466;SDS011;27205;53.690;19.948;2023-05-18T07:31:53;0.80;;;0.70;;
41466;SDS011;27205;53.690;19.948;2023-05-18T07:36:56;1.30;;;0.70;;
41466;SDS011;27205;53.690;19.948;2023-05-18T07:41:58;1.50;;;0.80;;
41466;SDS011;27205;53.690;19.948;2023-05-18T07:47:00;2.00;;;0.70;;
41466;SDS011;27205;53.690;19.948;2023-05-18T07:52:04;0.50;;;0.50;;
41466;SDS011;27205;53.690;19.948;2023-05-18T07:57:08;1.60;;;0.60;;
41466;SDS011;27205;53.690;19.948;2023-05-18T08:02:10;0.60;;;0.50;;
41466;SDS011;27205;53.690;19.948;2023-05-18T08:07:13;0.60;;;0.60;;
41466;SDS011;27205;53.690;19.948;2023-05-18T08:12:15;0.90;;;0.70;;
41466;SDS011;27205;53.690;19.948;2023-05-18T08:17:17;2.30;;;0.60;;
41466;SDS011;27205;53.690;19.948;2023-05-18T08:22:20;0.90;;;0.80;;
41466;SDS011;27205;53.690;19.948;2023-05-18T08:27:22;2.00;;;0.60;;
41466;SDS011;27205;53.690;19.948;2023-05-18T08:32:25;1.40;;;0.60;;
41466;SDS011;27205;53.690;19.948;2023-05-18T08:37:27;0.80;;;0.60;;
41466;SDS011;27205;53.690;19.948;2023-05-18T08:42:33;1.10;;;0.50;;
41466;SDS011;27205;53.690;19.948;2023-05-18T08:47:51;0.40;;;0.30;;
41466;SDS011;27205;53.690;19.948;2023-05-18T08:53:01;0.70;;;0.40;;
41466;SDS011;27205;53.690;19.948;2023-05-18T08:58:06;0.40;;;0.40;;
41466;SDS011;27205;53.690;19.948;2023-05-18T09:03:12;3.40;;;1.10;;
41466;SDS011;27205;53.690;19.948;2023-05-18T09:08:15;1.30;;;0.50;;
41466;SDS011;27205;53.690;19.948;2023-05-18T09:13:19;1.20;;;0.50;;
41466;SDS011;27205;53.690;19.948;2023-05-18T09:18:21;1.60;;;0.50;;
41466;SDS011;27205;53.690;19.948;2023-05-18T09:23:27;0.80;;;0.60;;
41466;SDS011;27205;53.690;19.948;2023-05-18T09:28:36;1.10;;;0.60;;
41466;SDS011;27205;53.690;19.948;2023-05-18T09:33:41;0.80;;;0.40;;
41466;SDS011;27205;53.690;19.948;2023-05-18T09:38:44;0.60;;;0.40;;
41466;SDS011;27205;53.690;19.948;2023-05-18T09:43:47;0.80;;;0.50;;
41466;SDS011;27205;53.690;19.948;2023-05-18T09:48:51;0.50;;;0.50;;
41466;SDS011;27205;53.690;19.948;2023-05-18T09:58:58;0.50;;;0.50;;
41466;SDS011;27205;53.690;19.948;2023-05-18T10:09:14;2.00;;;0.50;;
41466;SDS011;27205;53.690;19.948;2023-05-18T10:14:18;0.30;;;0.30;;
41466;SDS011;27205;53.690;19.948;2023-05-18T10:19:25;0.60;;;0.50;;
41466;SDS011;27205;53.690;19.948;2023-05-18T10:24:30;1.40;;;0.70;;
41466;SDS011;27205;53.690;19.948;2023-05-18T10:29:36;2.50;;;0.40;;
41466;SDS011;27205;53.690;19.948;2023-05-18T10:34:39;1.30;;;0.50;;
41466;SDS011;27205;53.690;19.948;2023-05-18T10:39:42;0.60;;;0.30;;
41466;SDS011;27205;53.690;19.948;2023-05-18T10:44:46;0.60;;;0.40;;
41466;SDS011;27205;53.690;19.948;2023-05-18T10:49:51;0.40;;;0.40;;
41466;SDS011;27205;53.690;19.948;2023-05-18T10:54:54;1.40;;;0.50;;
41466;SDS011;27205;53.690;19.948;2023-05-18T10:59:57;2.00;;;0.70;;
41466;SDS011;27205;53.690;19.948;2023-05-18T11:05:00;0.60;;;0.50;;
41466;SDS011;27205;53.690;19.948;2023-05-18T11:10:07;0.60;;;0.50;;
41466;SDS011;27205;53.690;19.948;2023-05-18T11:15:11;0.50;;;0.40;;
41466;SDS011;27205;53.690;19.948;2023-05-18T11:20:15;0.20;;;0.20;;
41466;SDS011;27205;53.690;19.948;2023-05-18T11:35:53;0.40;;;0.30;;
41466;SDS011;27205;53.690;19.948;2023-05-18T11:41:02;0.40;;;0.30;;
41466;SDS011;27205;53.690;19.948;2023-05-18T11:46:04;0.20;;;0.20;;
41466;SDS011;27205;53.690;19.948;2023-05-18T11:51:19;0.80;;;0.20;;
41466;SDS011;27205;53.690;19.948;2023-05-18T11:56:23;0.70;;;0.30;;
41466;SDS011;27205;53.690;19.948;2023-05-18T12:01:26;1.60;;;0.40;;
41466;SDS011;27205;53.690;19.948;2023-05-18T12:06:30;1.00;;;0.70;;
41466;SDS011;27205;53.690;19.948;2023-05-18T12:11:33;1.40;;;0.70;;
41466;SDS011;27205;53.690;19.948;2023-05-18T12:16:36;0.50;;;0.40;;
41466;SDS011;27205;53.690;19.948;2023-05-18T12:21:40;1.90;;;0.40;;
41466;SDS011;27205;53.690;19.948;2023-05-18T12:26:42;1.00;;;0.60;;
41466;SDS011;27205;53.690;19.948;2023-05-18T12:31:47;0.30;;;0.30;;
41466;SDS011;27205;53.690;19.948;2023-05-18T12:36:51;0.70;;;0.40;;
41466;SDS011;27205;53.690;19.948;2023-05-18T12:42:06;0.30;;;0.30;;
41466;SDS011;27205;53.690;19.948;2023-05-18T12:53:09;0.60;;;0.50;;
41466;SDS011;27205;53.690;19.948;2023-05-18T12:58:12;30.00;;;6.10;;
41466;SDS011;27205;53.690;19.948;2023-05-18T13:03:18;0.70;;;0.30;;
41466;SDS011;27205;53.690;19.948;2023-05-18T13:08:22;0.40;;;0.40;;
41466;SDS011;27205;53.690;19.948;2023-05-18T13:13:25;0.70;;;0.50;;
41466;SDS011;27205;53.690;19.948;2023-05-18T13:18:28;1.40;;;0.50;;
41466;SDS011;27205;53.690;19.948;2023-05-18T13:23:30;1.00;;;0.60;;
41466;SDS011;27205;53.690;19.948;2023-05-18T13:28:32;1.50;;;0.50;;
41466;SDS011;27205;53.690;19.948;2023-05-18T13:33:34;0.70;;;0.40;;
41466;SDS011;27205;53.690;19.948;2023-05-18T13:38:36;0.50;;;0.30;;
41466;SDS011;27205;53.690;19.948;2023-05-18T13:43:39;1.20;;;0.60;;
41466;SDS011;27205;53.690;19.948;2023-05-18T13:48:45;0.60;;;0.40;;
41466;SDS011;27205;53.690;19.948;2023-05-18T13:53:47;0.90;;;0.30;;
41466;SDS011;27205;53.690;19.948;2023-05-18T13:58:49;2.50;;;0.70;;
41466;SDS011;27205;53.690;19.948;2023-05-18T14:03:52;2.10;;;0.60;;
41466;SDS011;27205;53.690;19.948;2023-05-18T14:13:56;0.60;;;0.60;;
41466;SDS011;27205;53.690;19.948;2023-05-18T14:18:58;0.80;;;0.40;;
41466;SDS011;27205;53.690;19.948;2023-05-18T14:24:01;0.70;;;0.40;;
41466;SDS011;27205;53.690;19.948;2023-05-18T14:29:04;0.50;;;0.50;;
41466;SDS011;27205;53.690;19.948;2023-05-18T14:34:06;1.30;;;0.50;;
41466;SDS011;27205;53.690;19.948;2023-05-18T14:39:09;0.70;;;0.40;;
41466;SDS011;27205;53.690;19.948;2023-05-18T14:44:11;0.30;;;0.30;;
41466;SDS011;27205;53.690;19.948;2023-05-18T14:49:14;2.00;;;0.30;;
41466;SDS011;27205;53.690;19.948;2023-05-18T14:54:16;2.20;;;0.60;;
41466;SDS011;27205;53.690;19.948;2023-05-18T14:59:20;0.50;;;0.40;;
41466;SDS011;27205;53.690;19.948;2023-05-18T15:04:22;2.20;;;0.50;;
41466;SDS011;27205;53.690;19.948;2023-05-18T15:09:25;2.30;;;0.80;;
41466;SDS011;27205;53.690;19.948;2023-05-18T15:14:28;1.40;;;0.70;;
41466;SDS011;27205;53.690;19.948;2023-05-18T15:19:30;1.00;;;0.90;;
41466;SDS011;27205;53.690;19.948;2023-05-18T15:24:32;2.60;;;0.80;;
41466;SDS011;27205;53.690;19.948;2023-05-18T15:29:35;1.60;;;1.50;;
41466;SDS011;27205;53.690;19.948;2023-05-18T15:34:37;2.30;;;2.10;;
41466;SDS011;27205;53.690;19.948;2023-05-18T15:39:39;1.00;;;0.90;;
41466;SDS011;27205;53.690;19.948;2023-05-18T15:44:43;1.80;;;1.30;;
41466;SDS011;27205;53.690;19.948;2023-05-18T15:49:46;2.20;;;1.20;;
41466;SDS011;27205;53.690;19.948;2023-05-18T15:59:50;6.20;;;1.80;;
41466;SDS011;27205;53.690;19.948;2023-05-18T16:04:52;1.70;;;1.20;;
41466;SDS011;27205;53.690;19.948;2023-05-18T16:09:55;1.40;;;1.30;;
41466;SDS011;27205;53.690;19.948;2023-05-18T16:14:57;1.20;;;1.00;;
41466;SDS011;27205;53.690;19.948;2023-05-18T16:19:59;1.80;;;1.10;;
41466;SDS011;27205;53.690;19.948;2023-05-18T16:25:05;1.40;;;1.10;;
41466;SDS011;27205;53.690;19.948;2023-05-18T16:30:07;2.10;;;1.00;;
41466;SDS011;27205;53.690;19.948;2023-05-18T16:35:10;1.10;;;1.00;;
41466;SDS011;27205;53.690;19.948;2023-05-18T16:40:12;2.40;;;0.90;;
41466;SDS011;27205;53.690;19.948;2023-05-18T16:45:14;1.50;;;1.10;;
41466;SDS011;27205;53.690;19.948;2023-05-18T16:50:17;5.40;;;1.60;;
41466;SDS011;27205;53.690;19.948;2023-05-18T16:55:19;12.20;;;3.40;;
41466;SDS011;27205;53.690;19.948;2023-05-18T17:00:21;1.80;;;1.40;;
41466;SDS011;27205;53.690;19.948;2023-05-18T17:05:24;2.80;;;1.10;;
41466;SDS011;27205;53.690;19.948;2023-05-18T17:10:27;1.40;;;1.00;;
41466;SDS011;27205;53.690;19.948;2023-05-18T17:15:29;1.20;;;0.80;;
41466;SDS011;27205;53.690;19.948;2023-05-18T17:20:31;7.50;;;2.40;;
41466;SDS011;27205;53.690;19.948;2023-05-18T17:25:34;1.40;;;1.30;;
41466;SDS011;27205;53.690;19.948;2023-05-18T17:30:36;3.50;;;1.20;;
41466;SDS011;27205;53.690;19.948;2023-05-18T17:35:38;2.50;;;1.20;;
41466;SDS011;27205;53.690;19.948;2023-05-18T17:40:40;1.60;;;1.50;;
41466;SDS011;27205;53.690;19.948;2023-05-18T17:45:43;3.80;;;2.10;;
41466;SDS011;27205;53.690;19.948;2023-05-18T17:50:45;2.50;;;1.40;;
41466;SDS011;27205;53.690;19.948;2023-05-18T17:55:48;3.80;;;1.80;;
41466;SDS011;27205;53.690;19.948;2023-05-18T18:00:50;2.30;;;1.60;;
41466;SDS011;27205;53.690;19.948;2023-05-18T18:05:52;2.90;;;1.90;;
41466;SDS011;27205;53.690;19.948;2023-05-18T18:10:55;3.60;;;2.10;;
41466;SDS011;27205;53.690;19.948;2023-05-18T18:15:57;1.60;;;1.50;;
41466;SDS011;27205;53.690;19.948;2023-05-18T18:20:59;1.80;;;1.40;;
41466;SDS011;27205;53.690;19.948;2023-05-18T18:26:02;1.50;;;1.00;;
41466;SDS011;27205;53.690;19.948;2023-05-18T18:31:05;1.90;;;1.30;;
41466;SDS011;27205;53.690;19.948;2023-05-18T18:36:08;2.00;;;1.60;;
41466;SDS011;27205;53.690;19.948;2023-05-18T18:41:10;2.00;;;1.60;;
41466;SDS011;27205;53.690;19.948;2023-05-18T18:46:13;1.60;;;1.50;;
41466;SDS011;27205;53.690;19.948;2023-05-18T18:51:15;1.70;;;1.20;;
41466;SDS011;27205;53.690;19.948;2023-05-18T18:56:18;1.20;;;1.10;;
41466;SDS011;27205;53.690;19.948;2023-05-18T19:01:20;1.40;;;1.00;;
41466;SDS011;27205;53.690;19.948;2023-05-18T19:06:22;1.50;;;1.20;;
41466;SDS011;27205;53.690;19.948;2023-05-18T19:11:25;2.50;;;1.40;;
41466;SDS011;27205;53.690;19.948;2023-05-18T19:16:27;4.40;;;1.80;;
41466;SDS011;27205;53.690;19.948;2023-05-18T19:21:29;2.10;;;1.30;;
41466;SDS011;27205;53.690;19.948;2023-05-18T19:26:32;3.50;;;1.30;;
41466;SDS011;27205;53.690;19.948;2023-05-18T19:31:35;1.70;;;1.30;;
41466;SDS011;27205;53.690;19.948;2023-05-18T19:36:38;0.90;;;0.70;;
41466;SDS011;27205;53.690;19.948;2023-05-18T19:41:40;0.70;;;0.70;;
41466;SDS011;27205;53.690;19.948;2023-05-18T19:46:42;2.40;;;0.90;;
41466;SDS011;27205;53.690;19.948;2023-05-18T19:51:46;1.50;;;1.10;;
41466;SDS011;27205;53.690;19.948;2023-05-18T19:56:49;1.30;;;1.10;;
41466;SDS011;27205;53.690;19.948;2023-05-18T20:01:51;1.20;;;1.00;;
41466;SDS011;27205;53.690;19.948;2023-05-18T20:07:01;2.20;;;0.90;;
41466;SDS011;27205;53.690;19.948;2023-05-18T20:12:03;1.10;;;0.90;;
41466;SDS011;27205;53.690;19.948;2023-05-18T20:17:06;1.50;;;1.10;;
41466;SDS011;27205;53.690;19.948;2023-05-18T20:22:09;2.80;;;1.10;;
41466;SDS011;27205;53.690;19.948;2023-05-18T20:27:12;1.20;;;1.00;;
41466;SDS011;27205;53.690;19.948;2023-05-18T20:32:16;1.40;;;1.20;;
41466;SDS011;27205;53.690;19.948;2023-05-18T20:37:18;2.00;;;1.50;;
41466;SDS011;27205;53.690;19.948;2023-05-18T20:42:20;1.60;;;1.30;;
41466;SDS011;27205;53.690;19.948;2023-05-18T20:47:23;2.70;;;1.50;;
41466;SDS011;27205;53.690;19.948;2023-05-18T20:52:26;2.70;;;1.50;;
41466;SDS011;27205;53.690;19.948;2023-05-18T20:57:29;2.60;;;1.50;;
41466;SDS011;27205;53.690;19.948;2023-05-18T21:02:32;1.30;;;1.20;;
41466;SDS011;27205;53.690;19.948;2023-05-18T21:07:36;2.20;;;1.20;;
41466;SDS011;27205;53.690;19.948;2023-05-18T21:12:44;1.10;;;1.00;;
41466;SDS011;27205;53.690;19.948;2023-05-18T21:17:46;2.80;;;1.30;;
41466;SDS011;27205;53.690;19.948;2023-05-18T21:22:48;1.80;;;1.20;;
41466;SDS011;27205;53.690;19.948;2023-05-18T21:27:50;1.90;;;1.10;;
41466;SDS011;27205;53.690;19.948;2023-05-18T21:32:52;1.40;;;0.90;;
41466;SDS011;27205;53.690;19.948;2023-05-18T21:37:55;1.40;;;1.10;;
41466;SDS011;27205;53.690;19.948;2023-05-18T21:42:57;2.10;;;1.10;;
41466;SDS011;27205;53.690;19.948;2023-05-18T21:47:59;1.70;;;0.90;;
41466;SDS011;27205;53.690;19.948;2023-05-18T21:53:02;1.40;;;0.90;;
41466;SDS011;27205;53.690;19.948;2023-05-18T21:58:04;1.00;;;0.90;;
41466;SDS011;27205;53.690;19.948;2023-05-18T22:03:07;1.20;;;1.00;;
41466;SDS011;27205;53.690;19.948;2023-05-18T22:08:09;1.10;;;0.80;;
41466;SDS011;27205;53.690;19.948;2023-05-18T22:13:12;0.90;;;0.80;;
41466;SDS011;27205;53.690;19.948;2023-05-18T22:18:14;1.30;;;0.80;;
41466;SDS011;27205;53.690;19.948;2023-05-18T22:23:18;2.30;;;1.30;;
41466;SDS011;27205;53.690;19.948;2023-05-18T22:28:20;1.50;;;1.10;;
41466;SDS011;27205;53.690;19.948;2023-05-18T22:33:22;1.60;;;1.10;;
41466;SDS011;27205;53.690;19.948;2023-05-18T22:38:25;2.40;;;1.10;;
41466;SDS011;27205;53.690;19.948;2023-05-18T22:43:28;1.20;;;1.00;;
41466;SDS011;27205;53.690;19.948;2023-05-18T22:48:30;1.50;;;1.10;;
41466;SDS011;27205;53.690;19.948;2023-05-18T22:53:35;2.30;;;1.30;;
41466;SDS011;27205;53.690;19.948;2023-05-18T22:58:38;1.10;;;0.90;;
41466;SDS011;27205;53.690;19.948;2023-05-18T23:03:40;2.40;;;1.20;;
41466;SDS011;27205;53.690;19.948;2023-05-18T23:08:42;1.50;;;1.40;;
41466;SDS011;27205;53.690;19.948;2023-05-18T23:13:44;1.60;;;1.40;;
41466;SDS011;27205;53.690;19.948;2023-05-18T23:18:47;1.50;;;1.40;;
41466;SDS011;27205;53.690;19.948;2023-05-18T23:23:51;0.80;;;0.80;;
41466;SDS011;27205;53.690;19.948;2023-05-18T23:28:55;1.20;;;1.10;;
41466;SDS011;27205;53.690;19.948;2023-05-18T23:33:57;1.70;;;1.10;;
41466;SDS011;27205;53.690;19.948;2023-05-18T23:39:00;1.80;;;1.30;;
41466;SDS011;27205;53.690;19.948;2023-05-18T23:44:03;1.40;;;1.10;;
41466;SDS011;27205;53.690;19.948;2023-05-18T23:49:05;3.40;;;1.10;;
41466;SDS011;27205;53.690;19.948;2023-05-18T23:54:08;1.60;;;1.00;;
41466;SDS011;27205;53.690;19.948;2023-05-18T23:59:13;1.50;;;1.20;;
